Terminal Aerodrome Forecast
Issued by NWS Anchorage, AK

Home | Current Version | Previous Version | Text Only | Print | Product List | Glossary On
Versions: 1 2 3 4 5 6 7 8 9 10 11 12 13 14 15 16 17 18 19 20
000
FTAK31 PANC 240539
TAFANC
TAF
PANC 240539Z 2406/2512 VRB06KT P6SM SCT060
      TEMPO 2406/2410 02008G16KT
     FM241000 02015G20KT P6SM SKC
     FM241400 02020G30KT P6SM SKC=

USA.gov is the U.S. government's official web portal to all federal, state and local government web resources and services.